createdAt,value
2023-01-09T00:03:48.860Z,96061.16
2023-01-09T00:07:50.905Z,96052.63
2023-01-09T00:11:54.921Z,96048.91
2023-01-09T00:15:57.239Z,96048.38
2023-01-09T00:19:59.341Z,96048.75
2023-01-09T00:24:01.505Z,96042.81
2023-01-09T00:28:03.886Z,96041.88
2023-01-09T00:32:10.016Z,96027.16
2023-01-09T00:36:12.411Z,96029.94
2023-01-09T00:40:15.730Z,96034.53
2023-01-09T00:44:22.333Z,96030.34
2023-01-09T00:48:27.237Z,96035.75
2023-01-09T00:52:32.741Z,96023.66
2023-01-09T00:56:36.608Z,96025.22
2023-01-09T01:00:38.775Z,96020.75
2023-01-09T01:04:59.482Z,96016.19
2023-01-09T01:09:01.609Z,96015.25
2023-01-09T01:13:03.717Z,96020.34
2023-01-09T01:17:06.804Z,96019.72
2023-01-09T01:21:10.502Z,96023.59
2023-01-09T01:25:14.283Z,96017.00
2023-01-09T01:29:16.378Z,96016.25
2023-01-09T01:33:18.388Z,96010.09
2023-01-09T01:37:22.744Z,96017.72
2023-01-09T01:41:30.640Z,96020.16
2023-01-09T01:45:34.193Z,96024.44
2023-01-09T01:49:36.245Z,96032.78
2023-01-09T01:53:45.217Z,96037.06
2023-01-09T01:57:50.631Z,96029.66
2023-01-09T02:01:56.616Z,96029.84
2023-01-09T02:05:58.800Z,96032.97
2023-01-09T02:10:01.332Z,96042.78
2023-01-09T02:14:03.563Z,96037.09
2023-01-09T02:18:19.787Z,96031.53
2023-01-09T02:22:35.795Z,96026.53
2023-01-09T02:26:57.751Z,96016.78
2023-01-09T02:31:18.413Z,96031.13
2023-01-09T02:35:33.785Z,96043.44
2023-01-09T02:39:47.063Z,96052.09
2023-01-09T02:44:02.263Z,96049.50
2023-01-09T02:48:04.501Z,96049.66
2023-01-09T02:52:30.514Z,96046.44
2023-01-09T02:56:45.603Z,96054.25
2023-01-09T03:00:59.257Z,96034.50
2023-01-09T03:05:18.452Z,96054.00
2023-01-09T03:09:23.824Z,96056.59
2023-01-09T03:13:33.801Z,96058.38
2023-01-09T03:17:39.829Z,96069.63
2023-01-09T03:21:43.659Z,96075.69
2023-01-09T03:25:45.680Z,96090.31
2023-01-09T03:29:47.694Z,96101.41
2023-01-09T03:33:49.925Z,96107.53
2023-01-09T03:37:52.073Z,96117.97
2023-01-09T03:41:54.100Z,96108.47
2023-01-09T03:45:56.439Z,96119.94
2023-01-09T03:49:58.601Z,96119.47
2023-01-09T03:54:00.636Z,96119.66
2023-01-09T03:58:02.702Z,96137.16
2023-01-09T04:02:04.824Z,96139.03
2023-01-09T04:06:07.843Z,96140.72
2023-01-09T04:10:10.654Z,96137.84
2023-01-09T04:14:12.679Z,96146.66
2023-01-09T04:18:15.823Z,96150.38
2023-01-09T04:22:17.849Z,96152.41
2023-01-09T04:26:19.953Z,96160.50
2023-01-09T04:30:21.992Z,96154.91
2023-01-09T04:34:25.576Z,96164.13
2023-01-09T04:38:27.597Z,96175.00
2023-01-09T04:42:29.621Z,96178.97
2023-01-09T04:46:31.635Z,96189.19
2023-01-09T04:50:33.654Z,96198.44
2023-01-09T04:54:35.761Z,96204.56
2023-01-09T04:58:37.747Z,96199.16
2023-01-09T05:02:40.817Z,96203.13
2023-01-09T05:06:42.818Z,96219.84
2023-01-09T05:10:44.813Z,96230.44
2023-01-09T05:14:46.841Z,96241.00
2023-01-09T05:18:48.896Z,96249.56
2023-01-09T05:22:50.922Z,96244.59
2023-01-09T05:26:52.956Z,96242.16
2023-01-09T05:30:54.941Z,96256.53
2023-01-09T05:34:56.961Z,96267.31
2023-01-09T05:38:59.087Z,96262.16
2023-01-09T05:43:01.111Z,96275.78
2023-01-09T05:47:03.154Z,96281.31
2023-01-09T05:51:05.277Z,96281.22
2023-01-09T05:55:08.102Z,96283.34
2023-01-09T05:59:10.146Z,96296.25
2023-01-09T06:03:12.336Z,96301.63
2023-01-09T06:07:19.503Z,96295.84
2023-01-09T06:11:22.414Z,96308.19
2023-01-09T06:15:24.488Z,96316.44
2023-01-09T06:19:26.501Z,96320.38
2023-01-09T06:23:28.487Z,96326.16
2023-01-09T06:27:30.518Z,96339.81
2023-01-09T06:31:32.511Z,96340.88
2023-01-09T06:35:34.565Z,96355.34
2023-01-09T06:39:36.578Z,96352.50
2023-01-09T06:43:39.006Z,96361.75
2023-01-09T06:47:41.086Z,96373.91
2023-01-09T06:51:43.078Z,96378.19
2023-01-09T06:55:45.575Z,96380.81
2023-01-09T06:59:47.568Z,96385.53
2023-01-09T07:03:49.608Z,96383.91
2023-01-09T07:07:51.647Z,96377.16
2023-01-09T07:11:53.699Z,96390.34
2023-01-09T07:15:55.832Z,96400.81
2023-01-09T07:19:58.593Z,96388.19
2023-01-09T07:24:00.592Z,96390.34
2023-01-09T07:28:02.672Z,96402.72
2023-01-09T07:32:05.162Z,96408.16
2023-01-09T07:36:07.815Z,96403.97
2023-01-09T07:40:10.386Z,96411.19
2023-01-09T07:44:12.823Z,96422.47
2023-01-09T07:48:14.864Z,96418.91
2023-01-09T07:52:16.865Z,96421.63
2023-01-09T07:56:19.144Z,96434.63
2023-01-09T08:00:21.376Z,96429.31
2023-01-09T08:04:23.618Z,96428.50
2023-01-09T08:08:25.850Z,96425.81
2023-01-09T08:12:27.975Z,96430.78
2023-01-09T08:16:30.049Z,96435.97
2023-01-09T08:20:32.074Z,96431.53
2023-01-09T08:24:34.272Z,96444.38
2023-01-09T08:28:36.273Z,96438.28
2023-01-09T08:32:38.781Z,96432.88
2023-01-09T08:36:40.812Z,96437.94
2023-01-09T08:40:42.885Z,96437.59
2023-01-09T08:45:03.629Z,96447.84
2023-01-09T08:49:05.696Z,96446.44
2023-01-09T08:53:07.765Z,96437.78
2023-01-09T08:57:10.026Z,96434.09
2023-01-09T09:01:12.083Z,96439.97
2023-01-09T09:05:14.114Z,96433.66
2023-01-09T09:09:16.150Z,96449.75
2023-01-09T09:13:18.152Z,96449.88
2023-01-09T09:17:20.148Z,96452.13
2023-01-09T09:21:22.162Z,96445.56
2023-01-09T09:25:24.357Z,96438.38
2023-01-09T09:29:26.379Z,96442.69
2023-01-09T09:33:30.243Z,96429.38
2023-01-09T09:37:32.631Z,96437.09
2023-01-09T09:42:18.249Z,96441.97
2023-01-09T09:46:39.050Z,96454.84
2023-01-09T09:51:18.845Z,96453.75
2023-01-09T09:55:36.953Z,96453.06
2023-01-09T09:59:41.772Z,96448.22
2023-01-09T10:03:48.783Z,96459.81
2023-01-09T10:07:51.407Z,96446.72
2023-01-09T10:12:22.750Z,96443.97
2023-01-09T10:16:40.379Z,96441.63
2023-01-09T10:21:27.061Z,96436.31
2023-01-09T10:25:51.214Z,96447.22
2023-01-09T10:29:59.423Z,96452.66
2023-01-09T10:34:19.399Z,96447.06
2023-01-09T10:38:31.404Z,96451.38
2023-01-09T10:42:47.673Z,96450.69
2023-01-09T10:46:58.134Z,96448.91
2023-01-09T10:51:00.518Z,96459.84
2023-01-09T10:55:19.322Z,96462.66
2023-01-09T10:59:22.096Z,96469.25
2023-01-09T11:03:27.702Z,96461.59
2023-01-09T11:07:34.625Z,96453.75
2023-01-09T11:11:40.771Z,96448.91
2023-01-09T11:15:42.890Z,96456.31
2023-01-09T11:20:02.046Z,96451.44
2023-01-09T11:24:19.345Z,96450.97
2023-01-09T11:28:21.390Z,96456.66
2023-01-09T11:32:24.743Z,96453.56
2023-01-09T11:36:27.336Z,96467.22
2023-01-09T11:40:35.634Z,96470.75
2023-01-09T11:44:37.672Z,96476.19
2023-01-09T11:48:53.529Z,96477.66
2023-01-09T11:53:14.568Z,96484.66
2023-01-09T11:57:17.366Z,96480.44
2023-01-09T12:01:51.739Z,96479.22
2023-01-09T12:06:25.555Z,96487.19
2023-01-09T12:10:33.676Z,96487.09
2023-01-09T12:14:56.505Z,96481.13
2023-01-09T12:19:17.305Z,96479.91
2023-01-09T12:24:00.344Z,96474.19
2023-01-09T12:28:29.599Z,96475.41
2023-01-09T12:32:50.072Z,96478.41
2023-01-09T12:37:18.012Z,96471.59
2023-01-09T12:41:32.283Z,96473.09
2023-01-09T12:45:57.096Z,96462.63
2023-01-09T12:50:16.417Z,96470.75
2023-01-09T12:54:26.640Z,96471.44
2023-01-09T12:58:46.900Z,96482.53
2023-01-09T13:03:12.861Z,96487.28
2023-01-09T13:07:23.469Z,96489.81
2023-01-09T13:11:37.607Z,96498.38
2023-01-09T13:15:43.793Z,96501.94
2023-01-09T13:19:46.158Z,96500.06
2023-01-09T13:24:01.033Z,96498.78
2023-01-09T13:28:16.301Z,96494.22
2023-01-09T13:32:30.536Z,96499.25
2023-01-09T13:36:37.970Z,96497.56
2023-01-09T13:40:40.052Z,96492.16
2023-01-09T13:44:42.548Z,96495.75
2023-01-09T13:48:44.699Z,96500.91
2023-01-09T13:52:46.750Z,96489.81
2023-01-09T13:57:17.003Z,96497.28
2023-01-09T14:01:25.704Z,96499.50
2023-01-09T14:05:27.669Z,96514.16
2023-01-09T14:09:37.713Z,96523.13
2023-01-09T14:13:44.098Z,96523.38
2023-01-09T14:17:46.191Z,96524.38
2023-01-09T14:21:53.289Z,96535.22
2023-01-09T14:25:56.743Z,96538.09
2023-01-09T14:30:17.417Z,96534.72
2023-01-09T14:34:35.455Z,96558.41
2023-01-09T14:38:49.618Z,96544.91
2023-01-09T14:42:58.208Z,96559.00
2023-01-09T14:47:12.754Z,96569.97
2023-01-09T14:51:16.859Z,96584.41
2023-01-09T14:55:50.555Z,96597.81
2023-01-09T14:59:56.578Z,96603.63
2023-01-09T15:04:02.105Z,96607.06
2023-01-09T15:08:05.075Z,96615.09
2023-01-09T15:12:12.999Z,96624.88
2023-01-09T15:16:20.806Z,96629.31
2023-01-09T15:20:30.251Z,96638.44
2023-01-09T15:24:34.519Z,96651.63
2023-01-09T15:28:42.228Z,96663.75
2023-01-09T15:32:46.553Z,96663.94
2023-01-09T15:36:52.482Z,96664.19
2023-01-09T15:41:00.036Z,96672.06
2023-01-09T15:45:02.417Z,96668.97
2023-01-09T15:49:04.466Z,96675.25
2023-01-09T15:53:13.578Z,96676.28
2023-01-09T15:57:30.808Z,96685.38
2023-01-09T16:01:34.357Z,96690.72
2023-01-09T16:06:19.995Z,96699.94
2023-01-09T16:10:31.859Z,96718.53
2023-01-09T16:14:39.600Z,96721.91
2023-01-09T16:18:54.055Z,96739.25
2023-01-09T16:22:57.121Z,96762.63
2023-01-09T16:27:12.493Z,96773.50
2023-01-09T16:31:17.395Z,96781.59
2023-01-09T16:35:26.035Z,96783.63
2023-01-09T16:39:28.599Z,96785.81
2023-01-09T16:43:30.543Z,96801.69
2023-01-09T16:47:32.567Z,96785.09
2023-01-09T16:51:34.549Z,96805.94
2023-01-09T16:55:38.361Z,96804.25
2023-01-09T16:59:40.348Z,96803.47
2023-01-09T17:03:44.154Z,96806.22
2023-01-09T17:07:46.262Z,96802.69
2023-01-09T17:11:48.264Z,96816.78
2023-01-09T17:15:52.717Z,96823.81
2023-01-09T17:19:54.725Z,96840.31
2023-01-09T17:24:16.437Z,96837.19
2023-01-09T17:28:31.960Z,96839.19
2023-01-09T17:32:33.914Z,96852.34
2023-01-09T17:36:36.017Z,96857.72
2023-01-09T17:40:38.587Z,96861.22
2023-01-09T17:44:40.621Z,96877.09
2023-01-09T17:48:42.769Z,96876.38
2023-01-09T17:52:44.784Z,96886.09
2023-01-09T17:56:50.841Z,96882.69
2023-01-09T18:00:53.405Z,96902.94
2023-01-09T18:04:55.446Z,96905.75
2023-01-09T18:08:58.426Z,96911.19
2023-01-09T18:13:00.536Z,96920.69
2023-01-09T18:17:03.184Z,96925.91
2023-01-09T18:21:05.582Z,96937.34
2023-01-09T18:25:08.108Z,96947.84
2023-01-09T18:29:11.389Z,96961.75
2023-01-09T18:33:14.834Z,96970.50
2023-01-09T18:37:16.923Z,96975.50
2023-01-09T18:41:19.634Z,96987.78
2023-01-09T18:45:21.647Z,96987.66
2023-01-09T18:49:23.676Z,96995.47
2023-01-09T18:53:25.645Z,97000.19
2023-01-09T18:57:27.675Z,97013.56
2023-01-09T19:01:30.490Z,97020.06
2023-01-09T19:05:33.349Z,97028.22
2023-01-09T19:09:35.751Z,97020.69
2023-01-09T19:13:38.195Z,97030.47
2023-01-09T19:17:40.796Z,97036.69
2023-01-09T19:21:44.101Z,97038.69
2023-01-09T19:25:49.063Z,97056.19
2023-01-09T19:29:51.104Z,97053.81
2023-01-09T19:33:53.341Z,97060.06
2023-01-09T19:37:55.385Z,97070.53
2023-01-09T19:41:57.433Z,97064.53
2023-01-09T19:45:59.442Z,97071.66
2023-01-09T19:50:04.625Z,97068.41
2023-01-09T19:54:07.090Z,97081.44
2023-01-09T19:58:09.154Z,97084.91
2023-01-09T20:02:13.093Z,97098.72
2023-01-09T20:06:19.003Z,97110.78
2023-01-09T20:10:21.018Z,97124.44
2023-01-09T20:14:23.230Z,97141.63
2023-01-09T20:18:26.138Z,97147.63
2023-01-09T20:22:28.164Z,97150.34
2023-01-09T20:26:30.207Z,97164.50
2023-01-09T20:30:32.183Z,97168.94
2023-01-09T20:34:34.218Z,97173.97
2023-01-09T20:38:37.559Z,97184.34
2023-01-09T20:42:39.649Z,97186.22
2023-01-09T20:46:47.394Z,97176.78
2023-01-09T20:50:49.436Z,97189.00
2023-01-09T20:54:51.438Z,97186.53
2023-01-09T20:58:56.626Z,97191.75
2023-01-09T21:02:59.495Z,97196.75
2023-01-09T21:07:01.545Z,97204.84
2023-01-09T21:11:04.989Z,97213.00
2023-01-09T21:15:09.806Z,97220.28
2023-01-09T21:19:11.855Z,97234.16
2023-01-09T21:23:13.852Z,97236.44
2023-01-09T21:27:16.285Z,97239.88
2023-01-09T21:31:21.280Z,97246.91
2023-01-09T21:35:23.364Z,97255.00
2023-01-09T21:39:25.572Z,97248.34
2023-01-09T21:43:48.288Z,97265.06
2023-01-09T21:47:50.286Z,97264.38
2023-01-09T21:51:54.296Z,97283.34
2023-01-09T21:55:56.473Z,97276.53
2023-01-09T21:59:58.476Z,97282.81
2023-01-09T22:04:00.579Z,97295.00
2023-01-09T22:08:02.627Z,97291.47
2023-01-09T22:12:04.803Z,97306.22
2023-01-09T22:16:08.752Z,97316.53
2023-01-09T22:20:11.396Z,97330.59
2023-01-09T22:24:15.489Z,97328.94
2023-01-09T22:28:17.692Z,97344.22
2023-01-09T22:32:19.689Z,97344.00
2023-01-09T22:36:21.674Z,97354.50
2023-01-09T22:40:24.437Z,97366.41
2023-01-09T22:44:26.515Z,97376.41
2023-01-09T22:48:31.716Z,97387.34
2023-01-09T22:52:33.951Z,97390.53
2023-01-09T22:56:36.227Z,97389.59
2023-01-09T23:00:38.234Z,97399.78
2023-01-09T23:04:40.245Z,97401.03
2023-01-09T23:08:43.147Z,97399.06
2023-01-09T23:12:48.349Z,97404.28
2023-01-09T23:16:50.400Z,97405.38
2023-01-09T23:21:01.017Z,97414.38
2023-01-09T23:25:03.093Z,97428.66
2023-01-09T23:29:07.224Z,97431.72
2023-01-09T23:33:09.430Z,97436.63
2023-01-09T23:37:11.739Z,97430.06
2023-01-09T23:41:13.791Z,97452.94
2023-01-09T23:45:15.802Z,97464.28
2023-01-09T23:49:18.354Z,97463.47
2023-01-09T23:53:22.387Z,97455.88
2023-01-09T23:57:24.475Z,97471.66
